| Date | Time | Temp. (oF) | Dew Point (oF) | Rel. Hum. (%) | Press. (in.) | Wind Dir. | Wind Speed (mph) | Hourly Rainfall (in.) |
|
|---|---|---|---|---|---|---|---|---|---|
| 1 | 04/03 | 00:00 | 45 | 45 | 100 | 29.09 | W | 11 | 0.00 |
| 2 | 04/02 | 23:00 | 46 | 45 | 100 | 29.12 | W | 5 | 0.07 |
| 3 | 04/02 | 22:00 | 48 | 48 | 100 | 29.17 | S | 5 | 0.12 |
| 4 | 04/02 | 21:00 | 49 | 49 | 100 | 29.16 | W | 4 | 0.00 |
| 5 | 04/02 | 20:00 | 51 | 50 | 100 | 29.19 | W | 8 | 0.00 |
| 6 | 04/02 | 19:00 | 52 | 51 | 100 | 29.17 | WSW | 6 | 0.00 |
| 7 | 04/02 | 18:00 | 55 | 54 | 100 | 29.17 | ESE | 4 | 0.01 |
| 8 | 04/02 | 17:00 | 53 | 53 | 100 | 29.19 | ENE | 6 | 0.02 |
| 9 | 04/02 | 16:00 | 52 | 51 | 100 | 29.23 | ENE | 2 | 0.12 |
| 10 | 04/02 | 15:00 | 53 | 53 | 100 | 29.27 | W | 3 | 0.21 |
| 11 | 04/02 | 14:00 | 58 | 58 | 100 | 29.29 | SSE | 5 | 0.23 |
| 12 | 04/02 | 13:00 | 58 | 58 | 100 | 29.29 | SE | 4 | 0.00 |
| 13 | miss | miss | miss | miss | miss | miss | miss | miss | |
| 14 | 04/02 | 12:19 | 58 | 58 | 100 | 29.32 | SSE | 4 | 0.10 |
| 15 | miss | miss | miss | miss | miss | miss | miss | miss | |
| 16 | 04/02 | 12:17 | 58 | 58 | 100 | 29.33 | E | 7 | 0.09 |
| 17 | miss | miss | miss | miss | miss | miss | miss | miss | |
| 18 | 04/02 | 12:15 | 58 | 58 | 100 | 29.33 | E | 17 | 0.08 |
| 19 | miss | miss | miss | miss | miss | miss | miss | miss | |
| 20 | 04/02 | 12:13 | 58 | 58 | 100 | 29.33 | ESE | 7 | 0.07 |
| 21 | miss | miss | miss | miss | miss | miss | miss | miss | |
| 22 | 04/02 | 12:11 | 58 | 58 | 100 | 29.33 | SE | 5 | 0.05 |
| 23 | miss | miss | miss | miss | miss | miss | miss | miss | |
| 24 | 04/02 | 12:09 | 58 | 58 | 100 | 29.33 | SE | 10 | 0.05 |
| 25 | miss | miss | miss | miss | miss | miss | miss | miss | |
| 26 | 04/02 | 12:08 | 58 | 58 | 100 | 29.33 | SSE | 7 | 0.04 |
| 27 | miss | miss | miss | miss | miss | miss | miss | miss | |
| 28 | 04/02 | 12:08 | 58 | 58 | 100 | 29.33 | SSE | 7 | 0.04 |
| 29 | miss | miss | miss | miss | miss | miss | miss | miss | |
| 30 | 04/02 | 12:08 | 58 | 58 | 100 | 29.33 | SSE | 7 | 0.04 |
| 31 | miss | miss | miss | miss | miss | miss | miss | miss | |
| 32 | 04/02 | 12:08 | 58 | 58 | 100 | 29.33 | SSE | 7 | 0.04 |
| 33 | miss | miss | miss | miss | miss | miss | miss | miss | |
| 34 | 04/02 | 12:08 | 58 | 58 | 100 | 29.33 | SSE | 7 | 0.04 |
| 35 | miss | miss | miss | miss | miss | miss | miss | miss | |
| 36 | 04/02 | 12:08 | 58 | 58 | 100 | 29.33 | SSE | 7 | 0.04 |
| 37 | 04/02 | 12:00 | 58 | 58 | 100 | 29.34 | ESE | 11 | 0.05 |
| 38 | 04/02 | 11:00 | 57 | 57 | 100 | 29.39 | ESE | 12 | 0.01 |
| 39 | 04/02 | 10:00 | 50 | 50 | 100 | 29.44 | E | 10 | 0.01 |
| 40 | 04/02 | 09:00 | 47 | 46 | 100 | 29.49 | E | 8 | 0.03 |
| 41 | 04/02 | 08:00 | 45 | 45 | 100 | 29.53 | NE | 4 | 0.06 |
| 42 | 04/02 | 07:00 | 44 | 44 | 100 | 29.58 | ENE | 8 | 0.09 |
| 43 | 04/02 | 06:00 | 44 | 44 | 100 | 29.62 | ENE | 11 | 0.07 |
| 44 | 04/02 | 05:00 | 44 | 44 | 100 | 29.66 | ESE | 8 | 0.01 |
| 45 | 04/02 | 04:00 | 44 | 44 | 100 | 29.70 | NNW | 7 | 0.02 |
| 46 | 04/02 | 03:00 | 44 | 44 | 100 | 29.74 | E | 4 | 0.00 |
| 47 | miss | miss | miss | miss | miss | miss | miss | miss | |
| 48 | 04/02 | 02:02 | 45 | 45 | 100 | 29.79 | E | 6 | 0.01 |
| 49 | miss | miss | miss | miss | miss | miss | miss | miss | |
| 50 | 04/02 | 02:01 | 45 | 45 | 100 | 29.79 | ENE | 12 | 0.00 |
| 51 | miss | miss | miss | miss | miss | miss | miss | miss | |
| 52 | 04/02 | 02:01 | 45 | 45 | 100 | 29.79 | ENE | 12 | 0.00 |
| 53 | miss | miss | miss | miss | miss | miss | miss | miss | |
| 54 | 04/02 | 02:01 | 45 | 45 | 100 | 29.79 | ENE | 12 | 0.00 |
| 55 | miss | miss | miss | miss | miss | miss | miss | miss | |
| 56 | 04/02 | 02:01 | 45 | 45 | 100 | 29.79 | ENE | 12 | 0.00 |
| 57 | miss | miss | miss | miss | miss | miss | miss | miss | |
| 58 | 04/02 | 02:01 | 45 | 45 | 100 | 29.79 | ENE | 12 | 0.00 |
| 59 | miss | miss | miss | miss | miss | miss | miss | miss | |
| 60 | 04/02 | 02:01 | 45 | 45 | 100 | 29.79 | ENE | 12 | 0.00 |
| 61 | miss | miss | miss | miss | miss | miss | miss | miss | |
| 62 | 04/02 | 02:01 | 45 | 45 | 100 | 29.79 | ENE | 12 | 0.00 |
| 63 | miss | miss | miss | miss | miss | miss | miss | miss | |
| 64 | 04/02 | 02:01 | 45 | 45 | 100 | 29.79 | ENE | 12 | 0.00 |
| 65 | miss | miss | miss | miss | miss | miss | miss | miss | |
| 66 | 04/02 | 02:01 | 45 | 45 | 100 | 29.79 | ENE | 12 | 0.00 |
| 67 | miss | miss | miss | miss | miss | miss | miss | miss | |
| 68 | 04/02 | 02:01 | 45 | 45 | 100 | 29.79 | ENE | 12 | 0.00 |
| 69 | miss | miss | miss | miss | miss | miss | miss | miss | |
| 70 | 04/02 | 02:01 | 45 | 45 | 100 | 29.79 | ENE | 12 | 0.00 |
| 71 | 04/02 | 02:00 | 45 | 45 | 100 | 29.79 | ENE | 13 | 0.06 |
| 72 | 04/02 | 01:00 | 46 | 45 | 100 | 29.83 | ENE | 6 | 0.07 |
| 73 | 04/02 | 00:00 | 48 | 48 | 100 | 29.89 | E | 5 | -1.67 |
| 74 | 04/01 | 23:00 | 49 | 47 | 96 | 29.92 | E | 4 | 0.03 |
| 75 | 04/01 | 22:00 | 51 | 48 | 92 | 29.94 | E | 4 | 0.00 |
| 76 | 04/01 | 21:00 | 52 | 48 | 88 | 29.98 | SE | 9 | 0.00 |
| 77 | 04/01 | 20:00 | 56 | 46 | 71 | 29.93 | ESE | 3 | 0.00 |
| 78 | 04/01 | 19:00 | 58 | 48 | 70 | 29.92 | ESE | 8 | 0.00 |
| 79 | 04/01 | 18:00 | 61 | 46 | 60 | 29.97 | SE | 2 | 0.00 |
| 80 | 04/01 | 17:00 | 61 | 46 | 58 | 29.95 | NE | 5 | 0.00 |
| 81 | 04/01 | 16:00 | 61 | 43 | 53 | 29.99 | SE | 2 | 0.00 |
| 82 | 04/01 | 15:00 | 62 | 44 | 52 | 30.02 | E | 5 | 0.00 |
| 83 | 04/01 | 14:00 | 62 | 45 | 55 | 30.04 | SSE | 2 | 0.00 |
| 84 | 04/01 | 13:00 | 60 | 44 | 56 | 30.07 | W | 6 | 0.00 |
| 85 | 04/01 | 12:00 | 59 | 45 | 62 | 30.09 | NW | 5 | 0.00 |
| 86 | 04/01 | 11:00 | 57 | 43 | 60 | 30.11 | N | 4 | 0.00 |
| 87 | 04/01 | 10:00 | 55 | 43 | 66 | 30.11 | NW | 5 | 0.00 |
| 88 | 04/01 | 09:00 | 51 | 49 | 93 | 30.13 | NNW | 8 | 0.00 |
| 89 | 04/01 | 08:00 | 46 | 45 | 100 | 30.14 | N | 3 | 0.00 |
| 90 | 04/01 | 07:00 | 45 | 45 | 100 | 30.14 | N | 0 | 0.00 |
| 91 | 04/01 | 06:00 | 44 | 44 | 100 | 30.10 | NE | 2 | 0.00 |
| 92 | 04/01 | 05:00 | 44 | 44 | 100 | 30.09 | NE | 0 | 0.00 |
| 93 | 04/01 | 04:00 | 44 | 44 | 100 | 30.07 | ENE | 4 | 0.00 |
| 94 | 04/01 | 03:00 | 45 | 44 | 99 | 30.07 | E | 0 | 0.00 |
| 95 | 04/01 | 02:00 | 45 | 44 | 97 | 30.07 | ESE | 0 | 0.00 |
| 96 | 04/01 | 01:00 | 45 | 44 | 97 | 30.07 | SSE | 0 | 0.00 |
| 97 | 04/01 | 00:00 | 45 | 44 | 97 | 30.06 | ENE | 2 | -0.03 |